ADDS METAR Data INFO
IDs: Format: Raw Decoded Include TAF

Data at: 1530 UTC 18 Jun 2018

K24J 181515Z AUTO 00000KT 10SM CLR 31/23 A3016 RMK A01
K24J 181455Z AUTO 00000KT 10SM CLR 30/24 A3015 RMK A01
K24J 181435Z AUTO 00000KT 10SM CLR 30/23 A3015 RMK A01
K24J 181415Z AUTO 00000KT 10SM CLR 29/24 A3015 RMK A01
K24J 181355Z AUTO 00000KT 10SM CLR 28/23 A3016 RMK A01
K24J 181335Z AUTO 00000KT 10SM CLR 28/24 A3017 RMK A01
K24J 181315Z AUTO 02003KT 10SM CLR 27/23 A3017 RMK A01
K24J 181255Z AUTO 05004KT 10SM CLR 27/23 A3016 RMK A01
K24J 181235Z AUTO 00000KT 10SM CLR 26/24 A3017 RMK A01
K24J 181215Z AUTO 00000KT 10SM CLR 25/24 A3016 RMK A01
K24J 181155Z AUTO 00000KT 10SM CLR 24/24 A3016 RMK A01
K24J 181135Z AUTO 00000KT 10SM CLR 23/23 A3015 RMK A01
K24J 181115Z AUTO 00000KT 10SM CLR 23/23 A3015 RMK A01
K24J 181055Z AUTO 00000KT 10SM CLR 22/23 A3015 RMK A01
K24J 181035Z AUTO 00000KT 10SM FEW060 22/22 A3014 RMK A01
K24J 181015Z AUTO 00000KT 10SM SCT060 22/23 A3014 RMK A01
K24J 180955Z AUTO 00000KT 10SM CLR 22/23 A3013 RMK A01
K24J 180935Z AUTO 00000KT 10SM CLR 22/23 A3013 RMK A01
K24J 180915Z AUTO 00000KT 10SM FEW047 22/22 A3012 RMK A01
K24J 180855Z AUTO 00000KT 10SM SCT044 SCT050 22/22 A3011 RMK A01
K24J 180835Z AUTO 00000KT 10SM BKN043 BKN050 22/23 A3011 RMK A01
K24J 180815Z AUTO 00000KT 10SM BKN044 BKN050 23/23 A3011 RMK A01
K24J 180735Z AUTO 00000KT 10SM BKN046 BKN050 23/23 A3011 RMK A01
K24J 180715Z AUTO 00000KT 10SM SCT046 BKN055 23/23 A3011 RMK A01
K24J 180655Z AUTO 00000KT 10SM SCT043 BKN050 23/23 A3012 RMK A01
K24J 180635Z AUTO 00000KT 10SM FEW044 SCT050 23/23 A3012 RMK A01
K24J 180615Z AUTO 00000KT 10SM SCT049 23/23 A3012 RMK A01
K24J 180555Z AUTO 00000KT 10SM SCT050 23/23 A3013 RMK A01
K24J 180535Z AUTO 00000KT 10SM BKN050 BKN055 23/23 A3013 RMK A01
K24J 180455Z AUTO 00000KT 10SM FEW042 SCT048 BKN055 23/23 A3015 RMK A01
K24J 180435Z AUTO 00000KT 10SM SCT049 SCT055 23/23 A3015 RMK A01
K24J 180415Z AUTO 00000KT 10SM BKN049 BKN055 24/24 A3015 RMK A01
K24J 180355Z AUTO 00000KT 10SM BKN048 BKN055 24/24 A3015 RMK A01
K24J 180335Z AUTO 000KT 10SM FEW043 BKN050 24/24 A3015 RMK A01
K24J 180315Z AUTO 00000KT 10SM SCT043 BKN050 24/24 A3015 RMK A01
K24J 180255Z AUTO 00000KT 10SM BKN044 BKN050 OVC060 24/23 A3015 RMK A01
K24J 180235Z AUTO 00000KT 10SM SCT045 BKN055 BKN065 24/23 A3015 RMK A01
K24J 180215Z AUTO 00000KT 10SM SCT047 BKN055 BKN070 24/23 A3015 RMK A01
K24J 180155Z AUTO 00000KT 10SM FEW039 SCT048 SCT055 25/23 A3014 RMK A01
K24J 180135Z AUTO 00000KT 10SM FEW040 BKN047 BKN055 25/22 A3013 RMK A01
K24J 180115Z AUTO 00000KT 10SM SCT046 BKN065 25/22 A3013 RMK A01
K24J 180055Z AUTO 00000KT 10SM SCT044 SCT050 BKN065 26/22 A3012 RMK A01 LTG DSNT SE
K24J 180035Z AUTO 00000KT 10SM SCT043 26/22 A3013 RMK A01
K24J 180015Z AUTO VRB03KT 10SM CLR 26/21 A3012 RMK A01
K24J 172355Z AUTO 00000KT 10SM CLR 27/22 A3012 RMK A01 LTG DSNT E AND S
K24J 172335Z AUTO 01004G12KT 10SM VCTS FEW042 SCT050 SCT065 27/21 A3012 RMK A01 LTG DSNT SE AND W
K24J 172315Z AUTO 03008G22KT 10SM SCT042 BKN050 BKN065 29/22 A3011 RMK A01 LTG DSNT ALQDS
K24J 172255Z AUTO 03004KT 10SM CLR 32/22 A3011 RMK A01 LTG DSNT ALQDS
K24J 172235Z AUTO 00000KT 10SM CLR 32/22 A3010 RMK A01 LTG DSNT ALQDS
K24J 172215Z AUTO 00000KT 10SM FEW045 32/22 A3009 RMK A01 LTG DSNT N AND NE AND SW
K24J 172155Z AUTO 00000KT 10SM CLR 32/21 A3009 RMK A01 LTG DSNT ALQDS
K24J 172135Z AUTO 00000KT 10SM CLR 32/21 A3009 RMK A01 LTG DSNT N AND SE AND NW
K24J 172115Z AUTO 00000KT 10SM CLR 33/22 A3010 RMK A01 LTG DSNT N AND SE
K24J 172055Z AUTO VRB04KT 10SM VCTS CLR 32/21 A3010 RMK A01 LTG DSNT NE AND SE
K24J 172035Z AUTO 00000KT 10SM CLR 32/21 A3011 RMK A01 LTG DSNT S AND NW
K24J 172015Z AUTO 00000KT 10SM CLR 32/22 A3011 RMK A01
K24J 171955Z AUTO 00000KT 10SM CLR 32/22 A3011 RMK A01 LTG DSNT N
K24J 171935Z AUTO 00000KT 10SM CLR 32/22 A3011 RMK A01
K24J 171915Z AUTO 00000KT 10SM FEW041 32/22 A3012 RMK A01
K24J 171855Z AUTO VRB03KT 10SM CLR 32/23 A3012 RMK A01
K24J 171835Z AUTO 00000KT 10SM CLR 31/22 A3013 RMK A01
K24J 171815Z AUTO 33004KT 10SM CLR 32/23 A3014 RMK A01
K24J 171755Z AUTO 00000KT 10SM CLR 31/23 A3014 RMK A01
K24J 171735Z AUTO 00000KT 10SM CLR 31/23 A3015 RMK A01
K24J 171715Z AUTO VRB03KT 10SM CLR 30/22 A3016 RMK A01
K24J 171655Z AUTO VRB05KT 10SM CLR 30/24 A3017 RMK A01
K24J 171635Z AUTO 00000KT 10SM CLR 29/24 A3017 RMK A01
K24J 171615Z AUTO 00000KT 10SM CLR 29/24 A3017 RMK A01
K24J 171555Z AUTO 00000KT 10SM CLR 29/24 A3018 RMK A01
K24J 171535Z AUTO 00000KT 10SM CLR 29/24 A3018 RMK A01
K24J 171515Z AUTO 32003KT 10SM FEW018 29/24 A3018 RMK A01
K24J 171455Z AUTO 32005KT 10SM FEW019 29/24 A3018 RMK A01
K24J 171435Z AUTO 31003KT 10SM CLR 29/24 A3018 RMK A01
K24J 171415Z AUTO 00000KT 10SM FEW018 28/24 A3017 RMK A01
K24J 171355Z AUTO VRB05KT 10SM FEW016 29/25 A3018 RMK A01
K24J 171335Z AUTO 00000KT 10SM CLR 28/25 A3018 RMK A01
K24J 171315Z AUTO 00000KT 10SM CLR 27/25 A3017 RMK A01
K24J 171255Z AUTO 00000KT 10SM CLR 26/25 A3017 RMK A01
K24J 171235Z AUTO 00000KT 10SM CLR 25/25 A3016 RMK A01
K24J 171215Z AUTO 00000KT 10SM CLR 24/24 A3015 RMK A01 LTG DSNT NW
K24J 171155Z AUTO 00000KT 10SM CLR 23/23 A3014 RMK A01
K24J 171135Z AUTO 00000KT 9SM CLR 23/23 A3014 RMK A01
K24J 171115Z AUTO 00000KT 8SM CLR 22/22 A3013 RMK A01
K24J 171055Z AUTO 00000KT 4SM BR CLR 22/22 A3013 RMK A01
K24J 171035Z AUTO 00000KT 2 1/2SM BR CLR 22/23 A3012 RMK A01
K24J 171015Z AUTO 00000KT 3SM BR CLR 23/23 A3012 RMK A01
K24J 170955Z AUTO 00000KT 6SM BR CLR 23/23 A3012 RMK A01
K24J 170935Z AUTO 00000KT 9SM FEW017 23/23 A3011 RMK A01
K24J 170915Z AUTO 00000KT 9SM SCT017 SCT055 SCT070 23/23 A3011 RMK A01
K24J 170855Z AUTO 00000KT 10SM CLR 23/23 A3010 RMK A01
K24J 170835Z AUTO 00000KT 10SM FEW050 FEW055 23/23 A3009 RMK A01
K24J 170815Z AUTO 00000KT 7SM FEW037 SCT048 SCT055 23/23 A3008 RMK A01
K24J 170755Z AUTO 00000KT 9SM SCT036 SCT046 22/22 A3009 RMK A01
K24J 170735Z AUTO 00000KT 4SM BR FEW033 SCT045 SCT055 23/23 A3009 RMK A01
K24J 170715Z AUTO 00000KT 3/4SM BR BKN033 BKN041 OVC049 23/23 A3009 RMK A01
K24J 170655Z AUTO 00000KT 1/2SM FG BKN031 BKN040 22/23 A3009 RMK A01
K24J 170635Z AUTO 00000KT 7SM FEW032 SCT038 SCT044 23/23 A3010 RMK A01
K24J 170615Z AUTO 00000KT 4SM BR SCT047 SCT055 23/23 A3010 RMK A01
K24J 170555Z AUTO 00000KT 6SM BR BKN047 BKN055 23/23 A3010 RMK A01
K24J 170535Z AUTO 00000KT 9SM FEW040 BKN048 23/23 A3010 RMK A01
K24J 170515Z AUTO 00000KT 10SM FEW035 SCT040 BKN045 23/23 A3011 RMK A01
K24J 170455Z AUTO 00000KT 10SM FEW036 SCT042 BKN047 23/23 A3011 RMK A01
K24J 170435Z AUTO 00000KT 10SM SCT047 SCT055 24/24 A3011 RMK A01
K24J 170415Z AUTO 00000KT 10SM FEW049 24/24 A3012 RMK A01
K24J 170355Z AUTO 00000KT 10SM FEW038 SCT049 SCT055 24/24 A3011 RMK A01
K24J 170335Z AUTO 00000KT 10SM FEW023 SCT044 BKN055 24/24 A3011 RMK A01